Terminal Aerodrome Forecast
Issued by NWS

Home | Current Version | Previous Version | Text Only | Print | Product List | Glossary On
Versions: 1 2 3 4 5 6 7 8 9 10 11 12 13 14 15 16 17
000
FTUS43 KMPX 282340
TAFRWF
TAF
KRWF 282340Z 2900/2924 19018G28KT P6SM SCT060 BKN250
     FM290100 18011KT P6SM SCT100 BKN250
     FM291000 18004KT P6SM VCSH SCT070 BKN200
     FM291500 31008G15KT 4SM -TSRA BR OVC023CB
     FM292000 34015G23KT P6SM VCSH BKN025=

USA.gov is the U.S. government's official web portal to all federal, state and local government web resources and services.